sensor_id;sensor_type;location;lat;lon;timestamp;temperature;humidity
36790;DHT22;22740;52.182;8.780;2023-06-26T00:00:18;23.70;99.90
36790;DHT22;22740;52.182;8.780;2023-06-26T00:06:20;23.70;99.90
36790;DHT22;22740;52.182;8.780;2023-06-26T00:12:22;23.60;99.90
36790;DHT22;22740;52.182;8.780;2023-06-26T00:18:24;23.40;99.90
36790;DHT22;22740;52.182;8.780;2023-06-26T00:24:26;23.30;99.90
36790;DHT22;22740;52.182;8.780;2023-06-26T00:30:28;23.10;99.90
36790;DHT22;22740;52.182;8.780;2023-06-26T00:36:30;23.10;99.90
36790;DHT22;22740;52.182;8.780;2023-06-26T00:42:33;23.10;99.90
36790;DHT22;22740;52.182;8.780;2023-06-26T00:48:34;23.00;99.90
36790;DHT22;22740;52.182;8.780;2023-06-26T00:54:37;23.00;99.90
36790;DHT22;22740;52.182;8.780;2023-06-26T01:00:39;23.00;99.90
36790;DHT22;22740;52.182;8.780;2023-06-26T01:06:42;23.00;99.90
36790;DHT22;22740;52.182;8.780;2023-06-26T01:12:45;22.80;99.90
36790;DHT22;22740;52.182;8.780;2023-06-26T01:18:47;22.70;99.90
36790;DHT22;22740;52.182;8.780;2023-06-26T01:24:56;22.70;99.90
36790;DHT22;22740;52.182;8.780;2023-06-26T01:31:03;22.70;99.90
36790;DHT22;22740;52.182;8.780;2023-06-26T01:37:06;22.60;99.90
36790;DHT22;22740;52.182;8.780;2023-06-26T01:49:51;22.60;99.90
36790;DHT22;22740;52.182;8.780;2023-06-26T01:56:00;22.40;99.90
36790;DHT22;22740;52.182;8.780;2023-06-26T02:02:07;22.40;99.90
36790;DHT22;22740;52.182;8.780;2023-06-26T02:08:09;22.40;99.90
36790;DHT22;22740;52.182;8.780;2023-06-26T02:14:11;22.40;99.90
36790;DHT22;22740;52.182;8.780;2023-06-26T02:20:14;22.40;99.90
36790;DHT22;22740;52.182;8.780;2023-06-26T02:26:17;22.30;99.90
36790;DHT22;22740;52.182;8.780;2023-06-26T02:32:19;22.40;99.90
36790;DHT22;22740;52.182;8.780;2023-06-26T02:38:21;22.30;99.90
36790;DHT22;22740;52.182;8.780;2023-06-26T02:44:23;22.40;99.90
36790;DHT22;22740;52.182;8.780;2023-06-26T02:50:25;22.50;99.90
36790;DHT22;22740;52.182;8.780;2023-06-26T02:56:27;22.30;99.90
36790;DHT22;22740;52.182;8.780;2023-06-26T03:02:30;22.40;99.90
36790;DHT22;22740;52.182;8.780;2023-06-26T03:08:32;22.30;99.90
36790;DHT22;22740;52.182;8.780;2023-06-26T03:14:34;22.30;99.90
36790;DHT22;22740;52.182;8.780;2023-06-26T03:20:37;22.20;99.90
36790;DHT22;22740;52.182;8.780;2023-06-26T03:26:39;22.20;99.90
36790;DHT22;22740;52.182;8.780;2023-06-26T03:32:41;22.20;99.90
36790;DHT22;22740;52.182;8.780;2023-06-26T03:38:43;22.20;99.90
36790;DHT22;22740;52.182;8.780;2023-06-26T03:44:45;22.20;99.90
36790;DHT22;22740;52.182;8.780;2023-06-26T03:50:47;22.20;99.90
36790;DHT22;22740;52.182;8.780;2023-06-26T03:56:49;22.20;99.90
36790;DHT22;22740;52.182;8.780;2023-06-26T04:02:51;22.30;99.90
36790;DHT22;22740;52.182;8.780;2023-06-26T04:08:53;22.40;99.90
36790;DHT22;22740;52.182;8.780;2023-06-26T04:14:55;22.40;99.90
36790;DHT22;22740;52.182;8.780;2023-06-26T04:21:11;22.70;99.90
36790;DHT22;22740;52.182;8.780;2023-06-26T04:27:13;23.20;99.90
36790;DHT22;22740;52.182;8.780;2023-06-26T04:33:16;23.40;99.90
36790;DHT22;22740;52.182;8.780;2023-06-26T04:39:18;23.60;99.90
36790;DHT22;22740;52.182;8.780;2023-06-26T04:45:19;23.60;99.90
36790;DHT22;22740;52.182;8.780;2023-06-26T04:51:23;23.40;99.90
36790;DHT22;22740;52.182;8.780;2023-06-26T04:57:25;23.50;99.90
36790;DHT22;22740;52.182;8.780;2023-06-26T05:03:27;23.40;99.90
36790;DHT22;22740;52.182;8.780;2023-06-26T05:09:29;23.40;99.90
36790;DHT22;22740;52.182;8.780;2023-06-26T05:15:31;23.20;99.90
36790;DHT22;22740;52.182;8.780;2023-06-26T05:21:34;22.80;99.90
36790;DHT22;22740;52.182;8.780;2023-06-26T05:27:37;22.60;99.90
36790;DHT22;22740;52.182;8.780;2023-06-26T05:33:39;22.50;99.90
36790;DHT22;22740;52.182;8.780;2023-06-26T05:39:45;22.70;99.90
36790;DHT22;22740;52.182;8.780;2023-06-26T05:45:48;22.80;99.90
36790;DHT22;22740;52.182;8.780;2023-06-26T05:51:51;23.10;99.90
36790;DHT22;22740;52.182;8.780;2023-06-26T05:57:53;23.40;99.90
36790;DHT22;22740;52.182;8.780;2023-06-26T06:03:56;23.40;99.90
36790;DHT22;22740;52.182;8.780;2023-06-26T06:09:58;23.40;99.90
36790;DHT22;22740;52.182;8.780;2023-06-26T06:16:00;23.30;99.90
36790;DHT22;22740;52.182;8.780;2023-06-26T06:22:02;23.30;99.90
36790;DHT22;22740;52.182;8.780;2023-06-26T06:28:05;23.40;99.90
36790;DHT22;22740;52.182;8.780;2023-06-26T06:34:07;23.60;99.90
36790;DHT22;22740;52.182;8.780;2023-06-26T06:40:10;23.80;99.90
36790;DHT22;22740;52.182;8.780;2023-06-26T06:46:12;24.00;99.90
36790;DHT22;22740;52.182;8.780;2023-06-26T06:52:14;24.00;99.90
36790;DHT22;22740;52.182;8.780;2023-06-26T06:58:16;23.90;99.90
36790;DHT22;22740;52.182;8.780;2023-06-26T07:04:20;24.00;99.90
36790;DHT22;22740;52.182;8.780;2023-06-26T07:10:22;24.10;99.90
36790;DHT22;22740;52.182;8.780;2023-06-26T07:16:24;24.20;99.90
36790;DHT22;22740;52.182;8.780;2023-06-26T07:22:26;23.90;99.90
36790;DHT22;22740;52.182;8.780;2023-06-26T07:28:28;23.70;99.90
36790;DHT22;22740;52.182;8.780;2023-06-26T07:34:30;23.80;99.90
36790;DHT22;22740;52.182;8.780;2023-06-26T07:40:32;23.70;99.90
36790;DHT22;22740;52.182;8.780;2023-06-26T07:46:34;23.60;99.90
36790;DHT22;22740;52.182;8.780;2023-06-26T07:52:36;23.40;99.90
36790;DHT22;22740;52.182;8.780;2023-06-26T07:58:38;23.50;99.90
36790;DHT22;22740;52.182;8.780;2023-06-26T08:04:40;23.50;99.90
36790;DHT22;22740;52.182;8.780;2023-06-26T08:10:42;23.60;99.90
36790;DHT22;22740;52.182;8.780;2023-06-26T08:16:46;23.30;99.90
36790;DHT22;22740;52.182;8.780;2023-06-26T08:22:49;23.40;99.90
36790;DHT22;22740;52.182;8.780;2023-06-26T08:28:52;23.30;99.90
36790;DHT22;22740;52.182;8.780;2023-06-26T08:34:54;23.40;99.90
36790;DHT22;22740;52.182;8.780;2023-06-26T08:40:56;23.40;99.90
36790;DHT22;22740;52.182;8.780;2023-06-26T08:47:00;23.50;99.90
36790;DHT22;22740;52.182;8.780;2023-06-26T08:53:28;23.50;99.90
36790;DHT22;22740;52.182;8.780;2023-06-26T08:59:31;23.40;99.90
36790;DHT22;22740;52.182;8.780;2023-06-26T09:05:33;23.00;99.90
36790;DHT22;22740;52.182;8.780;2023-06-26T09:11:35;22.70;99.90
36790;DHT22;22740;52.182;8.780;2023-06-26T09:17:40;22.60;99.90
36790;DHT22;22740;52.182;8.780;2023-06-26T09:23:43;22.50;99.90
36790;DHT22;22740;52.182;8.780;2023-06-26T09:29:45;22.70;99.90
36790;DHT22;22740;52.182;8.780;2023-06-26T09:35:48;23.10;99.90
36790;DHT22;22740;52.182;8.780;2023-06-26T09:41:50;23.00;99.90
36790;DHT22;22740;52.182;8.780;2023-06-26T09:47:52;23.00;99.90
36790;DHT22;22740;52.182;8.780;2023-06-26T09:53:54;23.20;99.90
36790;DHT22;22740;52.182;8.780;2023-06-26T09:59:57;23.00;99.90
36790;DHT22;22740;52.182;8.780;2023-06-26T10:06:00;23.20;99.90
36790;DHT22;22740;52.182;8.780;2023-06-26T10:12:11;23.10;99.90
36790;DHT22;22740;52.182;8.780;2023-06-26T10:18:15;22.80;99.90
36790;DHT22;22740;52.182;8.780;2023-06-26T10:24:17;22.70;99.90
36790;DHT22;22740;52.182;8.780;2023-06-26T10:30:24;22.90;99.90
36790;DHT22;22740;52.182;8.780;2023-06-26T10:36:30;22.80;99.90
36790;DHT22;22740;52.182;8.780;2023-06-26T10:42:36;22.70;99.90
36790;DHT22;22740;52.182;8.780;2023-06-26T10:48:56;22.60;99.90
36790;DHT22;22740;52.182;8.780;2023-06-26T10:55:00;22.50;99.90
36790;DHT22;22740;52.182;8.780;2023-06-26T11:07:22;22.30;99.90
36790;DHT22;22740;52.182;8.780;2023-06-26T11:13:25;22.40;99.90
36790;DHT22;22740;52.182;8.780;2023-06-26T11:19:28;22.40;99.90
36790;DHT22;22740;52.182;8.780;2023-06-26T11:25:30;22.90;99.90
36790;DHT22;22740;52.182;8.780;2023-06-26T11:31:38;22.70;99.90
36790;DHT22;22740;52.182;8.780;2023-06-26T11:37:40;22.70;99.90
36790;DHT22;22740;52.182;8.780;2023-06-26T11:43:42;23.00;99.90
36790;DHT22;22740;52.182;8.780;2023-06-26T11:49:46;23.10;99.90
36790;DHT22;22740;52.182;8.780;2023-06-26T11:55:48;22.90;99.90
36790;DHT22;22740;52.182;8.780;2023-06-26T12:01:50;23.60;99.90
36790;DHT22;22740;52.182;8.780;2023-06-26T12:07:53;24.20;99.90
36790;DHT22;22740;52.182;8.780;2023-06-26T12:13:55;24.10;99.90
36790;DHT22;22740;52.182;8.780;2023-06-26T12:19:57;23.70;99.90
36790;DHT22;22740;52.182;8.780;2023-06-26T12:26:18;24.00;99.90
36790;DHT22;22740;52.182;8.780;2023-06-26T12:32:25;24.30;99.90
36790;DHT22;22740;52.182;8.780;2023-06-26T12:38:34;24.10;99.90
36790;DHT22;22740;52.182;8.780;2023-06-26T12:44:37;24.10;99.90
36790;DHT22;22740;52.182;8.780;2023-06-26T12:50:45;24.40;99.90
36790;DHT22;22740;52.182;8.780;2023-06-26T12:56:47;24.40;99.90
36790;DHT22;22740;52.182;8.780;2023-06-26T13:02:49;23.90;99.90
36790;DHT22;22740;52.182;8.780;2023-06-26T13:08:52;23.60;99.90
36790;DHT22;22740;52.182;8.780;2023-06-26T13:14:55;23.70;99.90
36790;DHT22;22740;52.182;8.780;2023-06-26T13:20:57;23.90;99.90
36790;DHT22;22740;52.182;8.780;2023-06-26T13:26:59;23.50;99.90
36790;DHT22;22740;52.182;8.780;2023-06-26T13:33:01;23.50;99.90
36790;DHT22;22740;52.182;8.780;2023-06-26T13:39:03;23.50;99.90
36790;DHT22;22740;52.182;8.780;2023-06-26T13:45:06;23.70;99.90
36790;DHT22;22740;52.182;8.780;2023-06-26T13:51:27;23.70;99.90
36790;DHT22;22740;52.182;8.780;2023-06-26T13:57:28;23.20;99.90
36790;DHT22;22740;52.182;8.780;2023-06-26T14:03:31;23.00;99.90
36790;DHT22;22740;52.182;8.780;2023-06-26T14:09:34;23.60;99.90
36790;DHT22;22740;52.182;8.780;2023-06-26T14:15:36;23.10;99.90
36790;DHT22;22740;52.182;8.780;2023-06-26T14:21:37;22.60;99.90
36790;DHT22;22740;52.182;8.780;2023-06-26T14:27:39;22.90;99.90
36790;DHT22;22740;52.182;8.780;2023-06-26T14:33:43;22.90;99.90
36790;DHT22;22740;52.182;8.780;2023-06-26T14:39:45;22.60;99.90
36790;DHT22;22740;52.182;8.780;2023-06-26T14:45:47;22.40;99.90
36790;DHT22;22740;52.182;8.780;2023-06-26T14:51:50;22.60;99.90
36790;DHT22;22740;52.182;8.780;2023-06-26T14:57:52;22.70;99.90
36790;DHT22;22740;52.182;8.780;2023-06-26T15:03:54;22.90;99.90
36790;DHT22;22740;52.182;8.780;2023-06-26T15:09:56;22.80;99.90
36790;DHT22;22740;52.182;8.780;2023-06-26T15:15:58;22.50;99.90
36790;DHT22;22740;52.182;8.780;2023-06-26T15:22:00;22.60;99.90
36790;DHT22;22740;52.182;8.780;2023-06-26T15:28:03;22.80;99.90
36790;DHT22;22740;52.182;8.780;2023-06-26T15:34:05;22.60;99.90
36790;DHT22;22740;52.182;8.780;2023-06-26T15:40:08;22.60;99.90
36790;DHT22;22740;52.182;8.780;2023-06-26T15:46:10;22.60;99.90
36790;DHT22;22740;52.182;8.780;2023-06-26T15:52:12;22.60;99.90
36790;DHT22;22740;52.182;8.780;2023-06-26T15:58:14;22.40;99.90
36790;DHT22;22740;52.182;8.780;2023-06-26T16:04:17;22.40;99.90
36790;DHT22;22740;52.182;8.780;2023-06-26T16:10:19;22.10;99.90
36790;DHT22;22740;52.182;8.780;2023-06-26T16:16:21;22.20;99.90
36790;DHT22;22740;52.182;8.780;2023-06-26T16:22:23;21.80;99.90
36790;DHT22;22740;52.182;8.780;2023-06-26T16:28:25;21.90;99.90
36790;DHT22;22740;52.182;8.780;2023-06-26T16:34:27;21.80;99.90
36790;DHT22;22740;52.182;8.780;2023-06-26T16:40:29;21.60;99.90
36790;DHT22;22740;52.182;8.780;2023-06-26T16:46:31;21.50;99.90
36790;DHT22;22740;52.182;8.780;2023-06-26T16:52:34;21.60;99.90
36790;DHT22;22740;52.182;8.780;2023-06-26T16:58:36;21.30;99.90
36790;DHT22;22740;52.182;8.780;2023-06-26T17:04:38;21.10;99.90
36790;DHT22;22740;52.182;8.780;2023-06-26T17:10:39;21.10;99.90
36790;DHT22;22740;52.182;8.780;2023-06-26T17:16:42;21.10;99.90
36790;DHT22;22740;52.182;8.780;2023-06-26T17:22:44;21.00;99.90
36790;DHT22;22740;52.182;8.780;2023-06-26T17:28:46;20.90;99.90
36790;DHT22;22740;52.182;8.780;2023-06-26T17:34:49;20.80;99.90
36790;DHT22;22740;52.182;8.780;2023-06-26T17:40:51;20.80;99.90
36790;DHT22;22740;52.182;8.780;2023-06-26T17:46:53;20.60;99.90
36790;DHT22;22740;52.182;8.780;2023-06-26T17:52:56;20.90;99.90
36790;DHT22;22740;52.182;8.780;2023-06-26T17:59:00;21.20;99.90
36790;DHT22;22740;52.182;8.780;2023-06-26T18:05:03;21.80;99.90
36790;DHT22;22740;52.182;8.780;2023-06-26T18:11:04;22.50;99.90
36790;DHT22;22740;52.182;8.780;2023-06-26T18:17:06;22.10;99.90
36790;DHT22;22740;52.182;8.780;2023-06-26T18:23:08;21.80;99.90
36790;DHT22;22740;52.182;8.780;2023-06-26T18:29:11;21.30;99.90
36790;DHT22;22740;52.182;8.780;2023-06-26T18:35:13;20.70;99.90
36790;DHT22;22740;52.182;8.780;2023-06-26T18:41:15;20.50;99.90
36790;DHT22;22740;52.182;8.780;2023-06-26T18:47:17;20.10;99.90
36790;DHT22;22740;52.182;8.780;2023-06-26T18:53:19;20.00;99.90
36790;DHT22;22740;52.182;8.780;2023-06-26T18:59:21;19.90;99.90
36790;DHT22;22740;52.182;8.780;2023-06-26T19:05:25;19.80;99.90
36790;DHT22;22740;52.182;8.780;2023-06-26T19:11:27;19.80;99.90
36790;DHT22;22740;52.182;8.780;2023-06-26T19:17:29;19.80;99.90
36790;DHT22;22740;52.182;8.780;2023-06-26T19:23:31;19.60;99.90
36790;DHT22;22740;52.182;8.780;2023-06-26T19:29:35;19.40;99.90
36790;DHT22;22740;52.182;8.780;2023-06-26T19:35:37;19.30;99.90
36790;DHT22;22740;52.182;8.780;2023-06-26T19:41:45;19.10;99.90
36790;DHT22;22740;52.182;8.780;2023-06-26T19:47:48;19.00;99.90
36790;DHT22;22740;52.182;8.780;2023-06-26T19:53:50;18.90;99.90
36790;DHT22;22740;52.182;8.780;2023-06-26T19:59:53;18.90;99.90
36790;DHT22;22740;52.182;8.780;2023-06-26T20:05:55;18.90;99.90
36790;DHT22;22740;52.182;8.780;2023-06-26T20:12:00;18.90;99.90
36790;DHT22;22740;52.182;8.780;2023-06-26T20:18:08;18.70;99.90
36790;DHT22;22740;52.182;8.780;2023-06-26T20:24:10;18.60;99.90
36790;DHT22;22740;52.182;8.780;2023-06-26T20:30:13;18.30;99.90
36790;DHT22;22740;52.182;8.780;2023-06-26T20:36:16;18.30;99.90
36790;DHT22;22740;52.182;8.780;2023-06-26T20:42:18;18.30;99.90
36790;DHT22;22740;52.182;8.780;2023-06-26T20:48:22;18.30;99.90
36790;DHT22;22740;52.182;8.780;2023-06-26T20:54:24;18.20;99.90
36790;DHT22;22740;52.182;8.780;2023-06-26T21:00:27;18.20;99.90
36790;DHT22;22740;52.182;8.780;2023-06-26T21:06:29;18.50;99.90
36790;DHT22;22740;52.182;8.780;2023-06-26T21:12:31;18.20;99.90
36790;DHT22;22740;52.182;8.780;2023-06-26T21:18:33;17.80;99.90
36790;DHT22;22740;52.182;8.780;2023-06-26T21:24:37;17.80;99.90
36790;DHT22;22740;52.182;8.780;2023-06-26T21:30:39;17.60;99.90
36790;DHT22;22740;52.182;8.780;2023-06-26T21:36:41;17.50;99.90
36790;DHT22;22740;52.182;8.780;2023-06-26T21:42:43;17.40;99.90
36790;DHT22;22740;52.182;8.780;2023-06-26T21:48:46;17.50;99.90
36790;DHT22;22740;52.182;8.780;2023-06-26T21:54:48;17.20;99.90
36790;DHT22;22740;52.182;8.780;2023-06-26T22:00:50;17.20;99.90
36790;DHT22;22740;52.182;8.780;2023-06-26T22:06:52;17.20;99.90
36790;DHT22;22740;52.182;8.780;2023-06-26T22:12:56;17.00;99.90
36790;DHT22;22740;52.182;8.780;2023-06-26T22:18:59;17.00;99.90
36790;DHT22;22740;52.182;8.780;2023-06-26T22:25:02;17.10;99.90
36790;DHT22;22740;52.182;8.780;2023-06-26T22:31:04;17.00;99.90
36790;DHT22;22740;52.182;8.780;2023-06-26T22:37:06;16.90;99.90
36790;DHT22;22740;52.182;8.780;2023-06-26T22:43:09;17.00;99.90
36790;DHT22;22740;52.182;8.780;2023-06-26T22:49:12;16.90;99.90
36790;DHT22;22740;52.182;8.780;2023-06-26T22:55:14;16.70;99.90
36790;DHT22;22740;52.182;8.780;2023-06-26T23:01:17;16.60;99.90
36790;DHT22;22740;52.182;8.780;2023-06-26T23:07:19;16.40;99.90
36790;DHT22;22740;52.182;8.780;2023-06-26T23:13:22;16.80;99.90
36790;DHT22;22740;52.182;8.780;2023-06-26T23:19:24;16.50;99.90
36790;DHT22;22740;52.182;8.780;2023-06-26T23:25:26;16.60;99.90
36790;DHT22;22740;52.182;8.780;2023-06-26T23:31:35;16.40;99.90
36790;DHT22;22740;52.182;8.780;2023-06-26T23:37:39;16.40;99.90
36790;DHT22;22740;52.182;8.780;2023-06-26T23:43:42;16.30;99.90
36790;DHT22;22740;52.182;8.780;2023-06-26T23:49:44;16.20;99.90
36790;DHT22;22740;52.182;8.780;2023-06-26T23:55:47;16.10;99.90
